Time;durP1;ratioP1;P1;durP2;ratioP2;P2;SDS_P1;SDS_P2;PMS_P1;PMS_P2;Temp;Humidity;BMP_temperature;BMP_pressure;BME280_temperature;BME280_humidity;BME280_pressure;Samples;Min_cycle;Max_cycle;Signal;HPM_P1;HPM_P2
2023/10/29 00:00:47;;;;;;;6.83;4.10;;;12.20;77.10;;;;;;4989168;28;20183;-69
2023/10/29 00:03:13;;;;;;;8.30;4.43;;;12.10;77.10;;;;;;4992881;28;20245;-69
2023/10/29 00:05:38;;;;;;;6.30;3.70;;;12.10;77.60;;;;;;4989313;28;20225;-69
2023/10/29 00:08:04;;;;;;;5.33;3.77;;;12.00;77.60;;;;;;4994091;28;20191;-69
2023/10/29 00:10:30;;;;;;;10.70;3.93;;;12.00;77.60;;;;;;4994607;28;20205;-69
2023/10/29 00:12:55;;;;;;;7.10;3.70;;;12.00;77.60;;;;;;4996656;28;20175;-70
2023/10/29 00:15:21;;;;;;;8.53;3.97;;;12.00;77.70;;;;;;4986567;28;21054;-71
2023/10/29 00:17:47;;;;;;;8.27;4.60;;;12.00;77.70;;;;;;4987013;28;20179;-70
2023/10/29 00:20:12;;;;;;;6.40;3.40;;;12.00;77.80;;;;;;4989906;28;20655;-69
2023/10/29 00:22:38;;;;;;;7.13;3.50;;;11.90;78.00;;;;;;4991844;28;20225;-70
2023/10/29 00:25:04;;;;;;;6.70;4.10;;;11.80;78.10;;;;;;4982870;28;20726;-70
2023/10/29 00:27:29;;;;;;;9.87;3.90;;;11.70;78.40;;;;;;4989497;28;20187;-70
2023/10/29 00:29:55;;;;;;;6.60;3.50;;;11.80;78.40;;;;;;4991123;28;20534;-69
2023/10/29 00:32:20;;;;;;;6.40;3.53;;;11.80;78.10;;;;;;4991553;28;20198;-70
2023/10/29 00:34:47;;;;;;;10.33;4.03;;;11.80;78.10;;;;;;4986403;28;20186;-69
2023/10/29 00:37:12;;;;;;;7.10;4.10;;;11.80;78.10;;;;;;4985668;28;20228;-71
2023/10/29 00:39:38;;;;;;;5.07;3.53;;;11.70;78.40;;;;;;4992926;28;21001;-69
2023/10/29 00:42:04;;;;;;;5.83;4.00;;;11.70;78.70;;;;;;4989420;28;20183;-70
2023/10/29 00:44:30;;;;;;;7.77;3.60;;;11.60;79.00;;;;;;4991016;28;20480;-69
2023/10/29 00:46:55;;;;;;;12.37;3.97;;;11.60;79.00;;;;;;4988723;28;20990;-70
2023/10/29 00:49:21;;;;;;;7.33;3.50;;;11.50;79.50;;;;;;4990410;28;20221;-69
2023/10/29 00:51:48;;;;;;;6.77;3.77;;;11.50;79.70;;;;;;4989034;28;20617;-69
2023/10/29 00:54:14;;;;;;;6.37;3.97;;;11.40;79.90;;;;;;4988443;28;20430;-69
2023/10/29 00:56:39;;;;;;;8.20;3.77;;;11.40;80.20;;;;;;4989213;28;20465;-68
2023/10/29 00:59:06;;;;;;;6.27;3.77;;;11.40;80.50;;;;;;4991948;28;20428;-69
2023/10/29 01:01:33;;;;;;;5.83;3.70;;;11.40;80.50;;;;;;4990597;28;20213;-68
2023/10/29 01:03:59;;;;;;;10.17;4.60;;;11.40;80.20;;;;;;4995697;28;20435;-67
2023/10/29 01:06:25;;;;;;;7.57;4.30;;;11.30;80.20;;;;;;4987779;28;21028;-67
2023/10/29 01:08:51;;;;;;;8.30;3.80;;;11.30;80.00;;;;;;4991264;28;20430;-67
2023/10/29 01:11:17;;;;;;;6.27;3.00;;;11.30;80.00;;;;;;4990776;28;20440;-68
2023/10/29 01:13:43;;;;;;;9.70;3.40;;;11.30;79.90;;;;;;4992502;28;20487;-68
2023/10/29 01:16:08;;;;;;;6.23;3.17;;;11.40;79.70;;;;;;4981213;28;20207;-68
2023/10/29 01:18:34;;;;;;;4.87;3.30;;;11.40;79.60;;;;;;4991531;28;20190;-69
2023/10/29 01:21:00;;;;;;;5.27;3.00;;;11.40;79.30;;;;;;4992763;28;20178;-68
2023/10/29 01:23:28;;;;;;;7.80;3.43;;;11.40;79.30;;;;;;4991163;28;20193;-68
2023/10/29 01:25:55;;;;;;;5.73;3.13;;;11.40;79.20;;;;;;4987765;28;20681;-68
2023/10/29 01:28:21;;;;;;;5.70;3.17;;;11.50;78.90;;;;;;4992208;28;20433;-68
2023/10/29 01:30:46;;;;;;;5.23;2.90;;;11.50;78.40;;;;;;4992672;28;20437;-67
2023/10/29 01:33:12;;;;;;;5.30;2.40;;;11.60;78.30;;;;;;4990857;28;20178;-68
2023/10/29 01:35:37;;;;;;;5.20;2.47;;;11.70;77.80;;;;;;4987594;28;20296;-69
2023/10/29 01:38:03;;;;;;;4.50;2.50;;;11.70;77.30;;;;;;4995639;28;20190;-68
2023/10/29 01:40:29;;;;;;;5.10;2.47;;;11.80;76.70;;;;;;4988704;28;20198;-69
2023/10/29 01:42:54;;;;;;;3.27;2.40;;;11.90;76.20;;;;;;4987382;28;20194;-72
2023/10/29 01:45:20;;;;;;;5.43;2.40;;;12.00;75.70;;;;;;4988396;28;20241;-69
2023/10/29 01:47:45;;;;;;;4.83;2.60;;;12.10;75.20;;;;;;4990579;28;20198;-70
2023/10/29 01:50:11;;;;;;;6.20;2.30;;;12.10;75.10;;;;;;4987625;28;20585;-70
2023/10/29 01:52:38;;;;;;;6.13;2.90;;;12.10;75.20;;;;;;4989411;28;20644;-71
2023/10/29 01:55:08;;;;;;;4.53;3.03;;;12.20;74.80;;;;;;4996510;28;20612;-69
2023/10/29 01:57:35;;;;;;;5.50;2.57;;;12.30;74.20;;;;;;4988760;28;20524;-69
2023/10/29 02:00:00;;;;;;;4.93;2.37;;;12.30;74.00;;;;;;4986850;28;20410;-69
2023/10/29 02:02:26;;;;;;;4.80;2.13;;;12.20;74.30;;;;;;4991398;28;20440;-69
2023/10/29 02:04:51;;;;;;;4.57;2.47;;;12.20;74.50;;;;;;4992691;28;20187;-70
2023/10/29 02:07:17;;;;;;;9.33;2.40;;;12.10;74.80;;;;;;4989656;28;20217;-70
2023/10/29 02:09:43;;;;;;;4.27;2.40;;;12.10;75.10;;;;;;4984257;28;20303;-68
2023/10/29 02:12:08;;;;;;;4.27;2.50;;;12.10;75.20;;;;;;4989904;28;20193;-69
2023/10/29 02:14:36;;;;;;;4.73;2.53;;;12.20;74.60;;;;;;4989078;28;20186;-69
2023/10/29 02:17:02;;;;;;;4.37;2.80;;;12.20;74.30;;;;;;4987100;28;20203;-68
2023/10/29 02:19:27;;;;;;;6.87;2.27;;;12.20;74.60;;;;;;4992693;28;20930;-68
2023/10/29 02:21:54;;;;;;;4.07;2.30;;;12.30;73.90;;;;;;4991224;28;20178;-68
2023/10/29 02:24:19;;;;;;;4.83;2.40;;;12.40;73.60;;;;;;4989815;28;20219;-69
2023/10/29 02:26:45;;;;;;;4.93;2.10;;;12.50;71.00;;;;;;4987664;28;20500;-69
2023/10/29 02:29:10;;;;;;;8.33;3.40;;;12.70;70.40;;;;;;4990465;28;20190;-70
2023/10/29 02:31:36;;;;;;;3.47;2.60;;;12.80;70.40;;;;;;4989531;28;20318;-69
2023/10/29 02:34:01;;;;;;;5.77;2.30;;;12.90;70.40;;;;;;4988614;28;20170;-68
2023/10/29 02:36:27;;;;;;;8.10;2.63;;;12.90;70.50;;;;;;4989247;28;20747;-68
2023/10/29 02:38:52;;;;;;;3.40;1.83;;;12.90;70.70;;;;;;4990199;28;20586;-68
2023/10/29 02:41:18;;;;;;;4.63;2.67;;;12.90;70.70;;;;;;4990298;28;21017;-70
2023/10/29 02:43:44;;;;;;;3.87;2.07;;;12.90;70.20;;;;;;4991831;28;20193;-69
2023/10/29 02:46:10;;;;;;;5.03;2.27;;;12.80;70.50;;;;;;4988784;28;20228;-68
2023/10/29 02:48:36;;;;;;;3.30;2.00;;;12.90;69.80;;;;;;4989470;28;20191;-70
2023/10/29 02:51:02;;;;;;;2.03;1.50;;;12.90;69.80;;;;;;4993360;28;20582;-70
2023/10/29 02:53:30;;;;;;;2.83;1.77;;;13.00;69.10;;;;;;4991786;28;20446;-69
2023/10/29 02:56:02;;;;;;;3.17;1.70;;;13.10;68.50;;;;;;4993074;28;20205;-69
2023/10/29 02:58:28;;;;;;;6.03;2.70;;;13.20;67.90;;;;;;4995207;28;20504;-70
2023/10/29 03:01:02;;;;;;;8.17;2.27;;;13.20;68.30;;;;;;4997428;28;20468;-69
2023/10/29 03:03:28;;;;;;;4.80;1.80;;;13.20;68.90;;;;;;4994450;28;20205;-69
2023/10/29 03:05:53;;;;;;;5.57;2.13;;;13.10;69.10;;;;;;4990078;28;20472;-69
2023/10/29 03:08:19;;;;;;;3.10;1.83;;;13.00;69.20;;;;;;4993778;28;20655;-70
2023/10/29 03:10:45;;;;;;;2.83;2.00;;;12.90;69.40;;;;;;4993818;28;20652;-70
2023/10/29 03:13:10;;;;;;;3.13;1.90;;;12.90;69.40;;;;;;4993529;28;20186;-68
2023/10/29 03:15:36;;;;;;;3.47;2.00;;;12.80;69.80;;;;;;4995372;28;20276;-70
2023/10/29 03:18:01;;;;;;;3.10;2.20;;;12.80;70.10;;;;;;4991613;28;20187;-70
2023/10/29 03:20:27;;;;;;;4.23;2.10;;;12.70;70.50;;;;;;4994840;28;20236;-69
2023/10/29 03:22:52;;;;;;;3.60;2.33;;;12.60;71.00;;;;;;4993831;28;20270;-69
2023/10/29 03:25:18;;;;;;;6.43;2.10;;;12.40;71.40;;;;;;4988529;28;20230;-70
2023/10/29 03:27:43;;;;;;;6.83;2.10;;;12.30;72.10;;;;;;4994792;28;20175;-69
2023/10/29 03:30:10;;;;;;;5.53;2.20;;;12.20;72.60;;;;;;4995622;28;20179;-69
2023/10/29 03:32:35;;;;;;;3.00;1.90;;;12.00;73.20;;;;;;4994106;28;20186;-70
2023/10/29 03:35:01;;;;;;;3.60;2.50;;;11.80;74.00;;;;;;4989972;28;20439;-69
2023/10/29 03:37:26;;;;;;;3.73;1.80;;;11.70;74.30;;;;;;4991124;28;20309;-69
2023/10/29 03:39:52;;;;;;;3.07;1.77;;;11.70;74.30;;;;;;4993102;28;20182;-70
2023/10/29 03:42:17;;;;;;;2.63;1.77;;;11.60;74.30;;;;;;4993095;28;20194;-69
2023/10/29 03:44:43;;;;;;;3.97;1.90;;;11.60;74.30;;;;;;4992231;28;20186;-68
2023/10/29 03:47:08;;;;;;;5.30;2.47;;;11.60;74.50;;;;;;4986207;28;20207;-70
2023/10/29 03:49:34;;;;;;;4.20;2.13;;;11.60;74.60;;;;;;4992039;28;20187;-69
2023/10/29 03:52:00;;;;;;;4.73;2.03;;;11.50;74.60;;;;;;4986917;28;20185;-69
2023/10/29 03:54:25;;;;;;;3.83;2.13;;;11.50;74.50;;;;;;4992894;28;20210;-69
2023/10/29 03:56:51;;;;;;;4.50;2.00;;;11.50;74.50;;;;;;4990150;28;20326;-69
2023/10/29 03:59:16;;;;;;;4.77;2.20;;;11.50;74.30;;;;;;4993758;28;20274;-69
2023/10/29 04:01:42;;;;;;;5.17;1.87;;;11.50;74.60;;;;;;4991115;28;20280;-69
2023/10/29 04:04:08;;;;;;;6.33;2.00;;;11.50;74.80;;;;;;4991435;28;20186;-69
2023/10/29 04:06:33;;;;;;;4.30;2.20;;;11.40;75.20;;;;;;4989452;28;20715;-68
2023/10/29 04:08:59;;;;;;;3.17;2.13;;;11.40;75.50;;;;;;4994098;28;20434;-70
2023/10/29 04:11:24;;;;;;;7.43;2.13;;;11.40;75.50;;;;;;4987541;28;20660;-69
2023/10/29 04:13:50;;;;;;;6.23;2.30;;;11.40;75.50;;;;;;4992591;28;20232;-69
2023/10/29 04:16:17;;;;;;;2.43;1.70;;;11.40;75.40;;;;;;4987764;28;20249;-69
2023/10/29 04:18:42;;;;;;;4.40;2.20;;;11.40;75.20;;;;;;4992558;28;20629;-70
2023/10/29 04:21:08;;;;;;;5.07;2.30;;;11.40;75.20;;;;;;4992593;28;20533;-70
2023/10/29 04:23:36;;;;;;;4.27;2.10;;;11.40;75.70;;;;;;4991920;28;20190;-71
2023/10/29 04:26:02;;;;;;;3.83;1.83;;;11.50;74.30;;;;;;4989270;28;20710;-69
2023/10/29 04:28:28;;;;;;;3.17;1.70;;;11.50;74.50;;;;;;4996943;28;20445;-70
2023/10/29 04:30:55;;;;;;;4.70;2.30;;;11.60;74.80;;;;;;4991558;28;20418;-71
2023/10/29 04:33:21;;;;;;;3.53;1.90;;;11.60;74.80;;;;;;4987787;28;20187;-69
2023/10/29 04:35:46;;;;;;;3.70;1.70;;;11.60;74.30;;;;;;4989222;28;20524;-71
2023/10/29 04:38:12;;;;;;;2.70;2.03;;;11.60;74.20;;;;;;4992424;28;20278;-68
2023/10/29 04:40:38;;;;;;;3.67;2.50;;;11.60;73.90;;;;;;4992066;28;20300;-69
2023/10/29 04:43:03;;;;;;;3.63;2.00;;;11.70;73.70;;;;;;4991779;28;20530;-71
2023/10/29 04:45:29;;;;;;;3.87;2.20;;;11.70;74.00;;;;;;4989873;28;20224;-68
2023/10/29 04:47:54;;;;;;;6.73;2.27;;;11.70;74.30;;;;;;4996359;28;20222;-69
2023/10/29 04:50:20;;;;;;;3.43;1.50;;;11.70;74.50;;;;;;4991396;28;20190;-69
2023/10/29 04:52:46;;;;;;;2.90;2.00;;;11.80;73.90;;;;;;4993233;28;20241;-71
2023/10/29 04:55:12;;;;;;;8.33;2.27;;;11.80;73.70;;;;;;4990146;28;20422;-69
2023/10/29 04:57:37;;;;;;;5.20;1.80;;;11.70;73.50;;;;;;4990575;28;20664;-69
2023/10/29 05:00:04;;;;;;;3.80;1.90;;;11.70;72.90;;;;;;4991712;28;20187;-69
2023/10/29 05:02:30;;;;;;;4.93;2.10;;;11.80;72.60;;;;;;4989084;28;20213;-68
2023/10/29 05:04:56;;;;;;;3.30;1.70;;;11.80;72.30;;;;;;4986850;28;20429;-68
2023/10/29 05:07:22;;;;;;;3.83;1.70;;;11.80;72.10;;;;;;4988574;28;20211;-69
2023/10/29 05:09:47;;;;;;;2.67;1.70;;;11.90;72.00;;;;;;4988766;28;21048;-68
2023/10/29 05:12:13;;;;;;;3.80;1.77;;;11.90;72.00;;;;;;4991879;28;20182;-69
2023/10/29 05:14:39;;;;;;;3.40;1.60;;;12.00;71.30;;;;;;4992921;28;20193;-69
2023/10/29 05:17:04;;;;;;;5.30;1.83;;;12.00;71.00;;;;;;4984760;28;21129;-69
2023/10/29 05:19:30;;;;;;;2.33;1.77;;;12.00;70.80;;;;;;4992624;28;20293;-69
2023/10/29 05:21:56;;;;;;;4.67;1.57;;;12.00;70.70;;;;;;4988365;28;20187;-69
2023/10/29 05:24:22;;;;;;;3.17;1.50;;;12.00;70.40;;;;;;4994137;28;20468;-67
2023/10/29 05:26:48;;;;;;;6.10;2.00;;;12.10;70.20;;;;;;4988885;28;20638;-69
2023/10/29 05:29:13;;;;;;;2.60;1.70;;;12.20;69.80;;;;;;4992170;28;20927;-69
2023/10/29 05:31:39;;;;;;;5.50;1.50;;;12.30;69.20;;;;;;4992079;28;20186;-69
2023/10/29 05:34:05;;;;;;;3.40;1.90;;;12.20;69.80;;;;;;4982856;28;20215;-69
2023/10/29 05:36:31;;;;;;;4.77;1.70;;;12.10;70.50;;;;;;4993586;28;20230;-68
2023/10/29 05:38:57;;;;;;;2.50;1.70;;;12.10;70.50;;;;;;4991130;28;20805;-70
2023/10/29 05:41:22;;;;;;;2.70;1.80;;;12.20;70.10;;;;;;4990431;28;20425;-68
2023/10/29 05:43:48;;;;;;;2.97;1.60;;;12.20;69.90;;;;;;4990983;28;20554;-69
2023/10/29 05:46:14;;;;;;;2.97;1.40;;;12.30;69.80;;;;;;4984713;28;20241;-69
2023/10/29 05:48:40;;;;;;;10.00;2.00;;;12.30;69.80;;;;;;4990103;28;20195;-70
2023/10/29 05:51:06;;;;;;;2.23;1.50;;;12.30;69.90;;;;;;4990392;28;20495;-71
2023/10/29 05:53:32;;;;;;;4.33;1.80;;;12.20;69.80;;;;;;4987968;28;20186;-70
2023/10/29 05:55:57;;;;;;;3.30;1.83;;;12.20;69.90;;;;;;4988744;28;20450;-71
2023/10/29 05:58:24;;;;;;;5.10;1.60;;;12.20;69.70;;;;;;4990158;28;20217;-69
2023/10/29 06:00:50;;;;;;;1.97;1.20;;;12.30;69.20;;;;;;4990096;28;20727;-71
2023/10/29 06:03:16;;;;;;;2.27;1.33;;;12.40;68.60;;;;;;4990780;28;20815;-70
2023/10/29 06:05:41;;;;;;;2.83;1.50;;;12.40;68.50;;;;;;4991263;28;20494;-69
2023/10/29 06:08:07;;;;;;;2.43;1.50;;;12.40;68.50;;;;;;4992860;28;20259;-70
2023/10/29 06:10:33;;;;;;;1.70;1.20;;;12.40;68.50;;;;;;4993507;28;20187;-70
2023/10/29 06:12:59;;;;;;;2.30;1.40;;;12.50;68.30;;;;;;4992145;28;20193;-71
2023/10/29 06:15:26;;;;;;;2.50;1.40;;;12.60;68.20;;;;;;4988567;28;20240;-70
2023/10/29 06:17:53;;;;;;;5.47;1.87;;;12.50;68.00;;;;;;4990154;28;20464;-70
2023/10/29 06:20:20;;;;;;;6.77;1.73;;;12.60;68.20;;;;;;4987252;28;20426;-70
2023/10/29 06:22:50;;;;;;;2.50;2.00;;;12.60;68.50;;;;;;4990314;28;20433;-70
2023/10/29 06:25:16;;;;;;;4.60;1.60;;;12.50;68.50;;;;;;4980176;28;20552;-69
2023/10/29 06:27:42;;;;;;;2.40;1.60;;;12.50;68.60;;;;;;4985831;28;20430;-71
2023/10/29 06:30:10;;;;;;;3.20;1.80;;;12.50;68.90;;;;;;4985719;28;20430;-68
2023/10/29 06:32:36;;;;;;;3.20;1.70;;;12.50;68.90;;;;;;4989786;28;20245;-69
2023/10/29 06:35:03;;;;;;;3.07;1.80;;;12.50;68.90;;;;;;4990260;28;20493;-68
2023/10/29 06:37:29;;;;;;;3.20;1.93;;;12.50;68.90;;;;;;4987763;28;20321;-70
2023/10/29 06:39:55;;;;;;;2.60;1.67;;;12.50;68.80;;;;;;4989587;28;20462;-69
2023/10/29 06:42:20;;;;;;;4.03;1.83;;;12.60;68.90;;;;;;4989173;28;20919;-69
2023/10/29 06:44:46;;;;;;;5.63;1.90;;;12.50;69.10;;;;;;4991195;28;20183;-70
2023/10/29 06:47:13;;;;;;;2.67;1.30;;;12.50;68.90;;;;;;4984594;28;20206;-69
2023/10/29 06:49:38;;;;;;;2.80;1.60;;;12.60;68.90;;;;;;4989925;28;20225;-69
2023/10/29 06:52:05;;;;;;;4.37;1.90;;;12.60;68.80;;;;;;4987812;28;20452;-69
2023/10/29 06:54:31;;;;;;;2.80;1.43;;;12.60;69.10;;;;;;4989471;28;20194;-67
2023/10/29 06:56:56;;;;;;;5.77;1.97;;;12.60;69.40;;;;;;4984199;28;20809;-69
2023/10/29 06:59:22;;;;;;;5.67;1.93;;;12.80;69.20;;;;;;4989378;28;20509;-69
2023/10/29 07:01:49;;;;;;;2.50;1.70;;;13.00;68.60;;;;;;4989457;28;20682;-68
2023/10/29 07:04:15;;;;;;;2.90;1.80;;;13.00;68.60;;;;;;4987493;28;20189;-69
2023/10/29 07:06:40;;;;;;;5.57;1.77;;;13.00;68.80;;;;;;4987656;28;20894;-71
2023/10/29 07:09:06;;;;;;;3.50;2.00;;;13.00;68.90;;;;;;4990266;28;20193;-69
2023/10/29 07:11:31;;;;;;;3.47;1.77;;;12.90;68.80;;;;;;4990147;28;20183;-69
2023/10/29 07:13:57;;;;;;;5.23;2.30;;;12.90;69.10;;;;;;4989081;28;20190;-68
2023/10/29 07:16:23;;;;;;;3.90;1.80;;;13.10;68.90;;;;;;4989804;28;20253;-69
2023/10/29 07:18:49;;;;;;;2.27;1.63;;;13.20;68.30;;;;;;4990271;28;20730;-69
2023/10/29 07:21:14;;;;;;;2.47;1.87;;;13.30;68.20;;;;;;4989984;28;20185;-68
2023/10/29 07:23:40;;;;;;;2.33;1.73;;;13.30;68.00;;;;;;4988078;28;20484;-70
2023/10/29 07:26:06;;;;;;;3.40;1.70;;;13.30;68.00;;;;;;4987063;28;20214;-69
2023/10/29 07:28:34;;;;;;;5.00;2.00;;;13.40;68.00;;;;;;4990189;28;20448;-70
2023/10/29 07:31:01;;;;;;;2.60;1.70;;;13.50;67.50;;;;;;4990224;28;20797;-70
2023/10/29 07:33:26;;;;;;;7.97;4.53;;;13.60;67.20;;;;;;4988614;28;20485;-70
2023/10/29 07:35:52;;;;;;;4.93;3.60;;;13.80;67.00;;;;;;4985166;28;20461;-70
2023/10/29 07:38:17;;;;;;;6.10;3.63;;;14.00;67.00;;;;;;4989227;28;20183;-69
2023/10/29 07:40:43;;;;;;;4.40;2.57;;;14.00;66.90;;;;;;4991478;28;20646;-70
2023/10/29 07:43:09;;;;;;;4.17;2.47;;;14.10;66.90;;;;;;4988082;28;20183;-72
2023/10/29 07:45:35;;;;;;;5.27;2.97;;;14.10;67.20;;;;;;4989900;28;20250;-69
2023/10/29 07:48:01;;;;;;;4.83;2.70;;;14.10;67.50;;;;;;4997357;28;20429;-69
2023/10/29 07:50:26;;;;;;;4.70;2.33;;;14.00;67.70;;;;;;4992882;28;20516;-70
2023/10/29 07:52:52;;;;;;;4.17;2.40;;;14.00;68.00;;;;;;4993225;28;20321;-70
2023/10/29 07:55:19;;;;;;;3.27;2.10;;;13.90;68.20;;;;;;4990681;28;20194;-68
2023/10/29 07:57:44;;;;;;;4.83;2.50;;;13.90;68.30;;;;;;4989805;28;20184;-70
2023/10/29 08:00:13;;;;;;;2.70;2.03;;;14.00;68.30;;;;;;4997424;28;20417;-69
2023/10/29 08:02:39;;;;;;;2.93;2.10;;;14.00;68.50;;;;;;4997521;28;20807;-69
2023/10/29 08:05:05;;;;;;;3.93;2.10;;;14.00;68.60;;;;;;4994371;28;20460;-69
2023/10/29 08:07:30;;;;;;;4.40;2.00;;;14.10;68.60;;;;;;4988130;28;20446;-69
2023/10/29 08:09:56;;;;;;;3.50;1.90;;;14.20;68.20;;;;;;4990034;28;20186;-69
2023/10/29 08:12:22;;;;;;;5.20;3.00;;;14.30;68.20;;;;;;4990527;28;20183;-70
2023/10/29 08:14:48;;;;;;;5.67;2.63;;;14.40;68.20;;;;;;4992437;28;20207;-69
2023/10/29 08:17:17;;;;;;;3.40;2.07;;;14.50;67.90;;;;;;4988163;28;20484;-69
2023/10/29 08:19:46;;;;;;;3.87;1.80;;;14.60;67.90;;;;;;4993267;28;20510;-68
2023/10/29 08:22:12;;;;;;;3.77;2.07;;;14.80;67.70;;;;;;4991047;28;20428;-69
2023/10/29 08:24:39;;;;;;;4.33;2.20;;;15.00;67.50;;;;;;4992609;28;20430;-69
2023/10/29 08:27:08;;;;;;;5.63;2.57;;;15.10;66.40;;;;;;4989226;28;20592;-71
2023/10/29 08:29:39;;;;;;;5.53;2.03;;;15.10;66.90;;;;;;4994449;28;20506;-68
2023/10/29 08:32:05;;;;;;;5.00;2.60;;;15.20;66.40;;;;;;4994280;28;20420;-70
2023/10/29 08:34:30;;;;;;;3.60;2.73;;;15.30;65.80;;;;;;4994035;28;20432;-70
2023/10/29 08:36:56;;;;;;;3.80;1.97;;;15.30;65.40;;;;;;4993720;28;20469;-69
2023/10/29 08:39:23;;;;;;;4.50;2.27;;;15.30;65.40;;;;;;4989283;28;20787;-70
2023/10/29 08:41:49;;;;;;;8.30;2.73;;;15.30;65.40;;;;;;4996688;28;20420;-70
2023/10/29 08:44:14;;;;;;;3.20;2.47;;;15.30;65.30;;;;;;4988948;28;20483;-70
2023/10/29 08:46:43;;;;;;;5.80;2.30;;;15.40;65.40;;;;;;4990873;28;20244;-69
2023/10/29 08:49:08;;;;;;;3.40;1.93;;;15.40;65.60;;;;;;4993431;28;20187;-71
2023/10/29 08:51:34;;;;;;;3.33;1.70;;;15.40;65.40;;;;;;4992798;28;20434;-70
2023/10/29 08:54:02;;;;;;;3.83;1.90;;;15.50;65.40;;;;;;4993145;28;20205;-71
2023/10/29 08:56:29;;;;;;;3.43;1.93;;;15.60;65.70;;;;;;4990590;28;20206;-69
2023/10/29 08:58:55;;;;;;;4.07;1.80;;;15.70;65.80;;;;;;4990792;28;20437;-70
2023/10/29 09:01:20;;;;;;;4.50;2.27;;;15.70;65.80;;;;;;4992672;28;20424;-70
2023/10/29 09:03:46;;;;;;;6.10;2.70;;;15.80;65.80;;;;;;4992481;28;20204;-71
2023/10/29 09:06:12;;;;;;;2.97;2.03;;;15.80;66.10;;;;;;4993897;28;20222;-70
2023/10/29 09:08:38;;;;;;;2.67;1.70;;;15.90;65.80;;;;;;4992215;28;20194;-69
2023/10/29 09:11:04;;;;;;;3.50;1.97;;;16.10;65.70;;;;;;4992521;28;20910;-69
2023/10/29 09:13:30;;;;;;;2.47;1.63;;;16.10;66.00;;;;;;4991810;28;20437;-71
2023/10/29 09:15:56;;;;;;;2.20;1.90;;;16.30;65.80;;;;;;4992173;28;20200;-69
2023/10/29 09:18:21;;;;;;;3.27;2.00;;;16.40;65.70;;;;;;4989779;28;20216;-69
2023/10/29 09:20:47;;;;;;;4.30;2.03;;;16.70;65.00;;;;;;4989979;28;20444;-71
2023/10/29 09:23:14;;;;;;;4.90;1.90;;;16.80;64.20;;;;;;4991376;28;20182;-70
2023/10/29 09:25:43;;;;;;;3.93;2.00;;;16.80;64.50;;;;;;4986312;28;20292;-70
2023/10/29 09:28:11;;;;;;;3.37;1.43;;;16.80;64.70;;;;;;4991489;28;20500;-70
2023/10/29 09:30:37;;;;;;;2.83;2.07;;;16.90;65.00;;;;;;4994809;28;20442;-70
2023/10/29 09:33:03;;;;;;;4.70;2.03;;;16.90;64.70;;;;;;4992478;28;20426;-71
2023/10/29 09:35:28;;;;;;;3.13;1.90;;;16.90;64.70;;;;;;4988119;28;20993;-70
2023/10/29 09:37:54;;;;;;;2.63;1.80;;;16.90;64.80;;;;;;4992612;28;20270;-72
2023/10/29 09:40:20;;;;;;;4.17;1.93;;;16.90;65.00;;;;;;4993247;28;20187;-70
2023/10/29 09:42:53;;;;;;;2.00;1.60;;;16.90;64.80;;;;;;4992104;28;20197;-71
2023/10/29 09:45:23;;;;;;;4.77;2.10;;;16.90;65.00;;;;;;4988580;28;20234;-72
2023/10/29 09:47:49;;;;;;;3.07;2.07;;;16.90;65.10;;;;;;4989446;28;20415;-71
2023/10/29 09:50:15;;;;;;;3.40;2.30;;;16.90;65.00;;;;;;4991787;28;20414;-71
2023/10/29 09:52:42;;;;;;;5.30;2.10;;;16.90;65.40;;;;;;4990094;28;20816;-71
2023/10/29 09:55:09;;;;;;;3.20;2.00;;;17.00;65.40;;;;;;4994166;28;20603;-69
2023/10/29 09:57:35;;;;;;;3.50;2.03;;;16.90;64.80;;;;;;4991684;28;20446;-71
2023/10/29 10:00:00;;;;;;;3.50;2.10;;;17.00;65.10;;;;;;4989996;28;20574;-70
2023/10/29 10:02:26;;;;;;;4.70;2.00;;;17.10;65.10;;;;;;4989588;28;20540;-70
2023/10/29 10:04:52;;;;;;;10.90;4.97;;;17.10;65.10;;;;;;4991214;28;20632;-71
2023/10/29 10:07:19;;;;;;;7.67;3.80;;;17.20;65.30;;;;;;4988155;28;20230;-71
2023/10/29 10:09:55;;;;;;;6.80;3.37;;;17.30;65.60;;;;;;4990747;28;20441;-71
2023/10/29 10:12:24;;;;;;;4.50;2.77;;;17.40;65.60;;;;;;4991798;28;20888;-77
2023/10/29 10:14:50;;;;;;;2.90;1.90;;;17.40;65.40;;;;;;4986698;28;20415;-73
2023/10/29 10:17:15;;;;;;;2.63;1.60;;;17.40;65.40;;;;;;4990698;28;20823;-72
2023/10/29 10:19:41;;;;;;;5.07;2.37;;;17.40;65.60;;;;;;4993479;28;20443;-72
2023/10/29 10:22:07;;;;;;;3.10;1.80;;;17.40;65.70;;;;;;4988325;28;20182;-71
2023/10/29 10:24:43;;;;;;;3.63;1.97;;;17.30;65.60;;;;;;4985594;28;20191;-73
2023/10/29 10:27:09;;;;;;;2.60;1.83;;;17.30;65.80;;;;;;4990587;28;20503;-71
2023/10/29 10:29:34;;;;;;;3.63;1.70;;;17.20;65.80;;;;;;4992326;28;20422;-71
2023/10/29 10:32:06;;;;;;;3.20;1.93;;;17.20;65.80;;;;;;4990351;28;20450;-72
2023/10/29 10:34:38;;;;;;;3.97;2.10;;;17.10;66.10;;;;;;4991988;28;20261;-69
2023/10/29 10:37:04;;;;;;;4.30;2.23;;;16.90;66.00;;;;;;4988812;28;20476;-72
2023/10/29 10:39:32;;;;;;;3.73;2.13;;;16.80;66.30;;;;;;4992116;28;20426;-76
2023/10/29 10:42:00;;;;;;;3.23;2.10;;;16.70;66.70;;;;;;4992390;28;20234;-75
2023/10/29 10:44:28;;;;;;;6.30;2.33;;;16.70;66.40;;;;;;4992245;28;20416;-75
2023/10/29 10:46:56;;;;;;;5.87;2.10;;;16.60;66.60;;;;;;4988506;28;20515;-75
2023/10/29 10:49:23;;;;;;;2.97;2.40;;;16.60;66.60;;;;;;4991231;28;20445;-74
2023/10/29 10:51:57;;;;;;;7.30;3.00;;;16.70;66.70;;;;;;4992584;28;20426;-75
2023/10/29 10:54:23;;;;;;;3.77;2.10;;;16.80;66.60;;;;;;4992322;28;20430;-74
2023/10/29 10:56:53;;;;;;;2.73;2.03;;;16.70;66.60;;;;;;4989682;28;20544;-74
2023/10/29 10:59:20;;;;;;;7.77;3.20;;;16.70;66.60;;;;;;4993343;28;20441;-75
2023/10/29 11:01:46;;;;;;;3.97;2.30;;;16.80;66.40;;;;;;4987732;28;20516;-75
2023/10/29 11:04:12;;;;;;;8.07;2.73;;;16.90;66.30;;;;;;4992051;28;20453;-81
2023/10/29 11:06:39;;;;;;;3.60;2.00;;;17.00;66.40;;;;;;4995776;28;20488;-83
2023/10/29 11:09:12;;;;;;;5.70;2.87;;;17.00;66.40;;;;;;4997270;28;20262;-76
2023/10/29 11:11:49;;;;;;;6.20;3.47;;;17.10;66.40;;;;;;4999418;28;20414;-83
2023/10/29 11:14:19;;;;;;;6.50;3.20;;;17.10;66.40;;;;;;4996755;28;20463;-73
2023/10/29 11:16:47;;;;;;;4.10;2.40;;;17.20;66.40;;;;;;4996135;28;20557;-76
2023/10/29 11:19:43;;;;;;;6.27;3.97;;;17.30;66.60;;;;;;4999072;28;20418;-74
2023/10/29 11:22:13;;;;;;;3.70;2.47;;;17.30;66.70;;;;;;4982577;28;20439;-74
2023/10/29 11:24:39;;;;;;;3.90;2.30;;;17.30;66.60;;;;;;4994951;28;20438;-76
2023/10/29 11:27:33;;;;;;;3.60;2.13;;;17.30;66.70;;;;;;4992724;28;21268;-76
2023/10/29 11:30:15;;;;;;;7.80;2.27;;;17.50;66.30;;;;;;4991640;28;20428;-75
2023/10/29 11:32:42;;;;;;;3.83;2.00;;;17.50;66.00;;;;;;4993663;28;20437;-76
2023/10/29 11:35:21;;;;;;;4.67;2.70;;;17.40;66.00;;;;;;4994007;28;20425;-74
2023/10/29 11:37:48;;;;;;;8.07;2.60;;;17.40;66.10;;;;;;4988435;28;20428;-77
2023/10/29 11:40:23;;;;;;;4.50;2.17;;;17.40;66.10;;;;;;4995331;28;20449;-77
2023/10/29 11:42:57;;;;;;;4.67;2.10;;;17.50;65.80;;;;;;4994237;28;20519;-76
2023/10/29 11:45:28;;;;;;;5.00;2.90;;;17.70;65.10;;;;;;4992817;28;21023;-75
2023/10/29 11:48:06;;;;;;;2.80;1.70;;;17.70;65.00;;;;;;4989642;28;20844;-76
2023/10/29 11:50:32;;;;;;;4.93;2.00;;;17.90;64.70;;;;;;4994504;28;20437;-77
2023/10/29 11:52:58;;;;;;;5.63;2.13;;;18.10;64.20;;;;;;4993502;28;20474;-75
2023/10/29 11:55:27;;;;;;;5.93;3.40;;;18.20;64.20;;;;;;4987971;28;20816;-75
2023/10/29 11:57:53;;;;;;;5.40;2.97;;;18.30;63.80;;;;;;4991156;28;20679;-77
2023/10/29 12:00:20;;;;;;;4.50;2.00;;;18.50;63.20;;;;;;4994415;28;20426;-76
2023/10/29 12:02:46;;;;;;;2.90;2.00;;;18.60;61.60;;;;;;4994411;28;20442;-74
2023/10/29 12:05:12;;;;;;;2.13;1.27;;;18.90;60.90;;;;;;4993860;28;20430;-75
2023/10/29 12:07:37;;;;;;;3.37;1.60;;;19.00;60.00;;;;;;4992169;28;20188;-75
2023/10/29 12:10:07;;;;;;;2.10;1.30;;;19.30;57.70;;;;;;4994171;28;20997;-77
2023/10/29 12:12:34;;;;;;;1.63;1.17;;;19.70;55.60;;;;;;4993942;28;20555;-76
2023/10/29 12:15:00;;;;;;;5.73;1.67;;;20.20;54.90;;;;;;4993813;28;20427;-74
2023/10/29 12:17:29;;;;;;;3.20;1.33;;;20.80;51.80;;;;;;4990111;28;20463;-75
2023/10/29 12:19:55;;;;;;;1.90;1.30;;;21.00;51.00;;;;;;4993908;28;20435;-76
2023/10/29 12:22:27;;;;;;;2.70;1.50;;;21.30;50.10;;;;;;4995044;28;20438;-76
2023/10/29 12:24:57;;;;;;;2.53;1.23;;;21.40;49.80;;;;;;4990916;28;20484;-76
2023/10/29 12:27:23;;;;;;;2.30;1.23;;;21.50;49.40;;;;;;4991512;28;20508;-76
2023/10/29 12:29:52;;;;;;;1.77;1.10;;;21.60;48.70;;;;;;4999468;28;20437;-76
2023/10/29 12:32:23;;;;;;;2.43;1.20;;;21.50;49.00;;;;;;4991086;28;20444;-75
2023/10/29 12:34:50;;;;;;;2.53;1.03;;;21.40;49.10;;;;;;4999155;28;20516;-77
2023/10/29 12:37:28;;;;;;;1.83;1.20;;;21.30;49.30;;;;;;4992730;28;20967;-75
2023/10/29 12:39:56;;;;;;;2.23;1.10;;;21.10;49.40;;;;;;4991343;28;21430;-77
2023/10/29 12:42:53;;;;;;;2.57;1.23;;;21.00;49.40;;;;;;4994646;28;21184;-76